Burin, Canada
Current Conditions -  °F | °C
As of 11:00 AM on Sunday 23 Nov 2014 (Local Time) from LFVP Reporting Station
Overcast Overcast  
Wind Chill: 29°   Ceiling: 1100
Heat Index: 37°   Visibility: 6mi
Dew Point: 36°   Wind: 15mph
Humidity: 93%   Direction: 270°W
Pressure: 29.77"   Gusts: NA
Location:  47.05°N, 55.16°W
Report Text: LFVP 231400Z 27013KT 9999 BKN011 OVC020 03/02 Q1008 NOSIG
Loading
Personal Weather Stations






























Interactive Weather Map New forecast layout! Learn more

10-Day Weather Forecast

Advertisements
Track Severe Weather on mobile